Time;durP1;ratioP1;P1;durP2;ratioP2;P2;SDS_P1;SDS_P2;PMS_P1;PMS_P2;Temp;Humidity;BMP_temperature;BMP_pressure;BME280_temperature;BME280_humidity;BME280_pressure;Samples;Min_cycle;Max_cycle;Signal;HPM_P1;HPM_P2
2021/09/13 00:02:14;;;;;;;4.40;2.47;;;;;;;;;;5061194;28;20052;-70
2021/09/13 00:04:41;;;;;;;5.05;2.80;;;;;;;;;;5073577;28;20048;-70
2021/09/13 00:07:07;;;;;;;3.53;2.50;;;;;;;;;;5073792;28;20051;-71
2021/09/13 00:09:34;;;;;;;3.45;2.35;;;;;;;;;;5072387;28;20044;-70
2021/09/13 00:12:00;;;;;;;3.65;2.45;;;;;;;;;;5073424;28;20040;-68
2021/09/13 00:14:26;;;;;;;6.30;2.88;;;;;;;;;;5073470;28;20059;-70
2021/09/13 00:16:53;;;;;;;5.18;2.90;;;;;;;;;;5072741;28;20045;-70
2021/09/13 00:19:22;;;;;;;5.75;2.58;;;;;;;;;;5073408;28;20044;-71
2021/09/13 00:21:49;;;;;;;6.45;2.63;;;;;;;;;;5064774;28;20071;-70
2021/09/13 00:24:15;;;;;;;3.58;2.45;;;;;;;;;;5073223;28;20372;-69
2021/09/13 00:26:42;;;;;;;5.55;2.60;;;;;;;;;;5062203;28;20052;-68
2021/09/13 00:29:08;;;;;;;4.78;2.83;;;;;;;;;;5053527;28;20060;-70
2021/09/13 00:31:34;;;;;;;5.15;2.85;;;;;;;;;;5053449;28;20471;-71
2021/09/13 00:34:01;;;;;;;5.60;2.55;;;;;;;;;;5053467;28;20053;-70
2021/09/13 00:36:29;;;;;;;3.78;3.08;;;;;;;;;;5053287;28;20053;-68
2021/09/13 00:38:55;;;;;;;3.88;2.53;;;;;;;;;;5052908;28;20053;-70
2021/09/13 00:41:22;;;;;;;5.32;2.80;;;;;;;;;;5065938;28;20055;-69
2021/09/13 00:43:49;;;;;;;3.50;2.33;;;;;;;;;;5073159;28;20084;-68
2021/09/13 00:46:15;;;;;;;4.32;2.28;;;;;;;;;;5073487;28;20049;-69
2021/09/13 00:48:42;;;;;;;4.35;2.72;;;;;;;;;;5063503;28;20906;-69
2021/09/13 00:51:08;;;;;;;3.35;2.28;;;;;;;;;;5072615;28;20056;-69
2021/09/13 00:53:36;;;;;;;4.45;2.85;;;;;;;;;;5072610;28;20049;-70
2021/09/13 00:56:02;;;;;;;4.20;2.55;;;;;;;;;;5072992;28;20053;-69
2021/09/13 00:58:29;;;;;;;6.00;2.67;;;;;;;;;;5072601;28;20049;-69
2021/09/13 01:00:57;;;;;;;5.25;2.95;;;;;;;;;;5072697;28;20045;-71
2021/09/13 01:03:23;;;;;;;6.85;2.90;;;;;;;;;;5072728;28;20044;-71
2021/09/13 01:05:50;;;;;;;5.47;3.10;;;;;;;;;;5072279;28;20056;-70
2021/09/13 01:08:16;;;;;;;4.00;2.47;;;;;;;;;;5072391;28;20052;-70
2021/09/13 01:10:44;;;;;;;5.10;2.50;;;;;;;;;;5072076;28;20048;-70
2021/09/13 01:13:11;;;;;;;4.78;2.90;;;;;;;;;;5072280;28;20059;-68
2021/09/13 01:15:38;;;;;;;4.25;2.40;;;;;;;;;;5070635;28;20048;-69
2021/09/13 01:18:05;;;;;;;4.65;2.70;;;;;;;;;;5072474;28;20554;-68
2021/09/13 01:20:31;;;;;;;4.55;2.25;;;;;;;;;;5071911;28;20467;-70
2021/09/13 01:23:00;;;;;;;4.30;2.63;;;;;;;;;;5072359;28;20486;-70
2021/09/13 01:25:27;;;;;;;3.67;2.40;;;;;;;;;;5071957;28;20048;-69
2021/09/13 01:27:54;;;;;;;4.80;2.60;;;;;;;;;;5070717;28;20059;-70
2021/09/13 01:30:20;;;;;;;5.00;2.53;;;;;;;;;;5072107;28;20052;-68
2021/09/13 01:32:47;;;;;;;4.80;2.88;;;;;;;;;;5072198;28;20048;-70
2021/09/13 01:35:13;;;;;;;3.92;2.65;;;;;;;;;;5072212;28;20415;-69
2021/09/13 01:37:39;;;;;;;4.25;2.60;;;;;;;;;;5071839;28;20048;-70
2021/09/13 01:40:07;;;;;;;4.03;2.72;;;;;;;;;;5071792;28;20053;-70
2021/09/13 01:42:35;;;;;;;5.60;2.78;;;;;;;;;;5062690;28;20045;-70
2021/09/13 01:45:02;;;;;;;4.28;2.33;;;;;;;;;;5060903;28;20530;-71
2021/09/13 01:47:28;;;;;;;5.00;2.75;;;;;;;;;;5060605;28;20053;-68
2021/09/13 01:49:54;;;;;;;4.57;2.53;;;;;;;;;;5051745;28;20435;-71
2021/09/13 01:52:21;;;;;;;4.32;2.47;;;;;;;;;;5051892;28;20052;-70
2021/09/13 01:54:47;;;;;;;3.90;2.72;;;;;;;;;;5051489;28;20049;-68
2021/09/13 01:57:14;;;;;;;3.65;2.33;;;;;;;;;;5071151;28;20410;-70
2021/09/13 01:59:41;;;;;;;4.53;2.58;;;;;;;;;;5071389;28;20055;-70
2021/09/13 02:02:08;;;;;;;4.38;2.72;;;;;;;;;;5071294;28;20399;-69
2021/09/13 02:04:34;;;;;;;4.43;2.50;;;;;;;;;;5071433;28;20410;-70
2021/09/13 02:07:01;;;;;;;5.88;2.83;;;;;;;;;;5071761;28;20057;-68
2021/09/13 02:09:27;;;;;;;5.40;2.60;;;;;;;;;;5071249;28;20064;-70
2021/09/13 02:11:53;;;;;;;6.25;2.60;;;;;;;;;;5071037;28;20049;-69
2021/09/13 02:14:20;;;;;;;3.28;2.20;;;;;;;;;;5070568;28;20052;-69
2021/09/13 02:16:48;;;;;;;3.67;2.20;;;;;;;;;;5051421;28;20055;-70
2021/09/13 02:19:14;;;;;;;3.92;2.33;;;;;;;;;;5051895;28;20048;-70
2021/09/13 02:21:40;;;;;;;7.00;2.65;;;;;;;;;;5051369;28;20056;-69
2021/09/13 02:24:07;;;;;;;4.97;2.78;;;;;;;;;;5051431;28;20513;-71
2021/09/13 02:26:33;;;;;;;7.22;2.50;;;;;;;;;;5051573;28;20053;-68
2021/09/13 02:29:00;;;;;;;5.15;2.90;;;;;;;;;;5051319;28;20072;-70
2021/09/13 02:31:27;;;;;;;5.00;2.72;;;;;;;;;;5051475;28;20044;-70
2021/09/13 02:33:55;;;;;;;5.88;2.80;;;;;;;;;;5051255;28;20064;-68
2021/09/13 02:36:21;;;;;;;4.30;2.70;;;;;;;;;;5051539;28;20044;-68
2021/09/13 02:38:48;;;;;;;5.90;2.55;;;;;;;;;;5051008;28;20060;-68
2021/09/13 02:41:14;;;;;;;3.10;2.15;;;;;;;;;;5051093;28;20053;-70
2021/09/13 02:43:41;;;;;;;7.45;2.75;;;;;;;;;;5061129;28;20049;-69
2021/09/13 02:46:07;;;;;;;4.38;2.63;;;;;;;;;;5058985;28;20491;-68
2021/09/13 02:48:33;;;;;;;6.10;2.67;;;;;;;;;;5063330;28;20048;-71
2021/09/13 02:51:01;;;;;;;3.90;2.35;;;;;;;;;;5051142;28;20049;-68
2021/09/13 02:53:28;;;;;;;4.63;2.60;;;;;;;;;;5051318;28;20049;-71
2021/09/13 02:55:54;;;;;;;4.60;2.67;;;;;;;;;;5050750;28;20640;-70
2021/09/13 02:58:21;;;;;;;5.57;2.30;;;;;;;;;;5050852;28;20403;-70
2021/09/13 03:00:47;;;;;;;3.88;2.60;;;;;;;;;;5050453;28;20048;-69
2021/09/13 03:03:14;;;;;;;3.95;2.47;;;;;;;;;;5050934;28;20049;-70
2021/09/13 03:05:40;;;;;;;4.05;2.83;;;;;;;;;;5050723;28;20057;-69
2021/09/13 03:08:09;;;;;;;4.28;2.25;;;;;;;;;;5052186;28;20136;-69
2021/09/13 03:10:36;;;;;;;4.20;2.30;;;;;;;;;;5054258;28;20110;-71
2021/09/13 03:13:02;;;;;;;4.22;2.45;;;;;;;;;;5054584;28;20053;-69
2021/09/13 03:15:29;;;;;;;6.30;2.10;;;;;;;;;;5064153;28;20070;-70
2021/09/13 03:17:55;;;;;;;4.20;2.20;;;;;;;;;;5074597;28;20071;-68
2021/09/13 03:20:22;;;;;;;4.78;2.47;;;;;;;;;;5074350;28;20521;-71
2021/09/13 03:22:48;;;;;;;4.28;2.42;;;;;;;;;;5073929;28;20067;-70
2021/09/13 03:25:16;;;;;;;4.45;2.70;;;;;;;;;;5074163;28;20063;-70
2021/09/13 03:27:42;;;;;;;4.55;2.20;;;;;;;;;;5074195;28;20048;-70
2021/09/13 03:30:10;;;;;;;3.95;2.65;;;;;;;;;;5074079;28;20048;-71
2021/09/13 03:32:37;;;;;;;4.40;2.40;;;;;;;;;;5074216;28;20051;-69
2021/09/13 03:35:04;;;;;;;6.63;2.60;;;;;;;;;;5074219;28;20059;-69
2021/09/13 03:37:30;;;;;;;3.60;2.17;;;;;;;;;;5074034;28;20056;-70
2021/09/13 03:39:57;;;;;;;4.05;2.53;;;;;;;;;;5074099;28;20065;-68
2021/09/13 03:42:24;;;;;;;5.50;2.78;;;;;;;;;;5071456;28;20051;-70
2021/09/13 03:44:51;;;;;;;6.50;3.38;;;;;;;;;;5061736;28;20659;-71
2021/09/13 03:47:17;;;;;;;5.05;2.60;;;;;;;;;;5069551;28;20051;-68
2021/09/13 03:49:44;;;;;;;4.70;2.60;;;;;;;;;;5074055;28;20052;-70
2021/09/13 03:52:10;;;;;;;3.88;2.22;;;;;;;;;;5073829;28;20457;-69
2021/09/13 03:54:37;;;;;;;3.55;2.45;;;;;;;;;;5073655;28;20056;-70
2021/09/13 03:57:04;;;;;;;4.70;2.97;;;;;;;;;;5074100;28;20483;-70
2021/09/13 03:59:32;;;;;;;4.85;2.70;;;;;;;;;;5073963;28;20051;-68
2021/09/13 04:01:59;;;;;;;5.10;3.00;;;;;;;;;;5073654;28;20056;-69
2021/09/13 04:04:27;;;;;;;4.75;2.70;;;;;;;;;;5073672;28;20048;-69
2021/09/13 04:06:56;;;;;;;4.07;2.45;;;;;;;;;;5074092;28;20455;-68
2021/09/13 04:12:07;;;;;;;3.75;2.70;;;;;;;;;;5073655;28;20169;-68
2021/09/13 04:14:34;;;;;;;3.67;2.58;;;;;;;;;;5073145;28;20506;-69
2021/09/13 04:17:01;;;;;;;3.63;2.50;;;;;;;;;;5072726;28;20048;-68
2021/09/13 04:19:27;;;;;;;4.88;2.83;;;;;;;;;;5072467;28;20731;-69
2021/09/13 04:21:54;;;;;;;5.22;2.60;;;;;;;;;;5073236;28;20048;-69
2021/09/13 04:24:21;;;;;;;6.93;2.55;;;;;;;;;;5073199;28;20048;-70
2021/09/13 04:26:47;;;;;;;5.07;2.90;;;;;;;;;;5067737;28;20131;-68
2021/09/13 04:29:14;;;;;;;4.20;2.80;;;;;;;;;;5061602;28;20041;-70
2021/09/13 04:31:42;;;;;;;3.90;2.60;;;;;;;;;;5063585;28;20044;-70
2021/09/13 04:34:08;;;;;;;4.22;2.67;;;;;;;;;;5063533;28;20055;-70
2021/09/13 04:36:35;;;;;;;5.60;2.80;;;;;;;;;;5061698;28;20053;-70
2021/09/13 04:39:01;;;;;;;4.18;2.72;;;;;;;;;;5063085;28;20548;-69
2021/09/13 04:41:28;;;;;;;5.95;2.92;;;;;;;;;;5063411;28;20464;-68
2021/09/13 04:43:54;;;;;;;4.45;2.63;;;;;;;;;;5060909;28;20091;-69
2021/09/13 04:46:21;;;;;;;5.05;2.67;;;;;;;;;;5062261;28;20053;-70
2021/09/13 04:48:49;;;;;;;6.40;2.85;;;;;;;;;;5072370;28;20040;-68
2021/09/13 04:51:16;;;;;;;14.48;3.55;;;;;;;;;;5072598;28;20036;-70
2021/09/13 04:53:42;;;;;;;6.18;2.80;;;;;;;;;;5072460;28;20052;-69
2021/09/13 04:56:09;;;;;;;6.03;2.30;;;;;;;;;;5072623;28;20070;-68
2021/09/13 04:58:35;;;;;;;4.72;3.03;;;;;;;;;;5072572;28;20643;-68
2021/09/13 05:01:02;;;;;;;5.22;2.53;;;;;;;;;;5072353;28;20040;-70
2021/09/13 05:03:28;;;;;;;5.25;2.63;;;;;;;;;;5072071;28;20044;-70
2021/09/13 05:05:57;;;;;;;4.40;2.40;;;;;;;;;;5072569;28;20059;-70
2021/09/13 05:08:23;;;;;;;6.70;2.20;;;;;;;;;;5072481;28;20049;-70
2021/09/13 05:10:50;;;;;;;4.72;2.20;;;;;;;;;;5072374;28;20055;-70
2021/09/13 05:13:16;;;;;;;3.53;2.20;;;;;;;;;;5071856;28;20402;-69
2021/09/13 05:15:43;;;;;;;5.20;2.30;;;;;;;;;;5072065;28;20053;-70
2021/09/13 05:18:09;;;;;;;6.70;2.78;;;;;;;;;;5071733;28;20418;-71
2021/09/13 05:20:36;;;;;;;4.00;2.47;;;;;;;;;;5071241;28;20052;-71
2021/09/13 05:23:03;;;;;;;6.03;2.78;;;;;;;;;;5071889;28;20036;-68
2021/09/13 05:25:30;;;;;;;5.80;2.75;;;;;;;;;;5072124;28;20052;-71
2021/09/13 05:27:56;;;;;;;5.65;2.78;;;;;;;;;;5071975;28;20053;-70
2021/09/13 05:30:23;;;;;;;5.10;2.58;;;;;;;;;;5071082;28;20407;-68
2021/09/13 05:32:49;;;;;;;4.05;2.25;;;;;;;;;;5071848;28;20045;-70
2021/09/13 05:35:16;;;;;;;6.88;3.60;;;;;;;;;;5071652;28;20055;-70
2021/09/13 05:37:42;;;;;;;6.47;3.13;;;;;;;;;;5071977;28;20060;-70
2021/09/13 05:40:11;;;;;;;5.72;2.78;;;;;;;;;;5071765;28;20055;-69
2021/09/13 05:42:37;;;;;;;4.28;2.50;;;;;;;;;;5068871;28;20044;-68
2021/09/13 05:45:05;;;;;;;4.53;2.85;;;;;;;;;;5067810;28;20045;-69
2021/09/13 05:47:31;;;;;;;6.40;2.90;;;;;;;;;;5071198;28;20060;-70
2021/09/13 05:49:59;;;;;;;3.75;2.40;;;;;;;;;;5076728;28;20079;-70
2021/09/13 05:52:26;;;;;;;6.20;2.70;;;;;;;;;;5069742;28;20044;-69
2021/09/13 05:54:52;;;;;;;5.22;2.80;;;;;;;;;;5070150;28;20071;-71
2021/09/13 05:57:20;;;;;;;4.53;2.72;;;;;;;;;;5070316;28;20055;-70
2021/09/13 05:59:46;;;;;;;5.07;2.40;;;;;;;;;;5070211;28;20411;-68
2021/09/13 06:02:13;;;;;;;3.88;2.50;;;;;;;;;;5070432;28;20037;-70
2021/09/13 06:04:40;;;;;;;6.03;2.92;;;;;;;;;;5070117;28;20770;-69
2021/09/13 06:07:06;;;;;;;6.32;2.55;;;;;;;;;;5059292;28;20053;-71
2021/09/13 06:09:33;;;;;;;4.32;3.10;;;;;;;;;;5051484;28;20052;-71
2021/09/13 06:11:59;;;;;;;5.63;2.47;;;;;;;;;;5051423;28;20055;-70
2021/09/13 06:14:27;;;;;;;5.75;2.70;;;;;;;;;;5051342;28;20399;-69
2021/09/13 06:16:53;;;;;;;5.40;2.90;;;;;;;;;;5051352;28;20063;-69
2021/09/13 06:19:20;;;;;;;6.15;2.88;;;;;;;;;;5051260;28;20380;-68
2021/09/13 06:21:46;;;;;;;5.60;2.80;;;;;;;;;;5051365;28;20052;-70
2021/09/13 06:24:13;;;;;;;5.38;2.85;;;;;;;;;;5051076;28;20052;-71
2021/09/13 06:26:39;;;;;;;4.13;2.20;;;;;;;;;;5051996;28;20486;-71
2021/09/13 06:29:06;;;;;;;4.15;2.80;;;;;;;;;;5051339;28;20056;-70
2021/09/13 06:31:34;;;;;;;5.68;2.90;;;;;;;;;;5051450;28;20072;-69
2021/09/13 06:34:00;;;;;;;6.28;2.72;;;;;;;;;;5064156;28;20115;-68
2021/09/13 06:36:27;;;;;;;5.15;3.40;;;;;;;;;;5071576;28;20055;-69
2021/09/13 06:38:53;;;;;;;4.50;2.83;;;;;;;;;;5071035;28;20138;-70
2021/09/13 06:41:20;;;;;;;6.47;3.50;;;;;;;;;;5071311;28;20044;-69
2021/09/13 06:43:47;;;;;;;3.92;2.70;;;;;;;;;;5075153;28;20052;-69
2021/09/13 06:46:20;;;;;;;5.38;2.92;;;;;;;;;;5074529;28;20044;-70
2021/09/13 06:48:49;;;;;;;5.15;3.33;;;;;;;;;;5068085;28;20136;-71
2021/09/13 06:51:17;;;;;;;6.90;3.85;;;;;;;;;;5074871;28;20505;-69
2021/09/13 06:53:44;;;;;;;5.60;3.42;;;;;;;;;;5056030;28;20128;-70
2021/09/13 06:56:11;;;;;;;6.60;3.85;;;;;;;;;;5057316;28;20491;-70
2021/09/13 06:58:38;;;;;;;5.57;3.50;;;;;;;;;;5054800;28;20051;-70
2021/09/13 07:01:04;;;;;;;8.02;3.70;;;;;;;;;;5054961;28;20053;-70
2021/09/13 07:03:31;;;;;;;5.82;4.03;;;;;;;;;;5054685;28;20045;-70
2021/09/13 07:05:59;;;;;;;5.43;3.42;;;;;;;;;;5054971;28;20068;-70
2021/09/13 07:08:25;;;;;;;5.18;3.35;;;;;;;;;;5055051;28;20056;-69
2021/09/13 07:10:53;;;;;;;6.22;3.58;;;;;;;;;;5055059;28;20064;-69
2021/09/13 07:13:20;;;;;;;5.90;3.17;;;;;;;;;;5060435;28;20044;-70
2021/09/13 07:15:46;;;;;;;6.68;3.70;;;;;;;;;;5073979;28;20049;-71
2021/09/13 07:18:14;;;;;;;6.18;4.13;;;;;;;;;;5074667;28;20087;-70
2021/09/13 07:20:40;;;;;;;7.15;3.88;;;;;;;;;;5074330;28;20052;-70
2021/09/13 07:23:10;;;;;;;5.78;3.90;;;;;;;;;;5074274;28;20049;-68
2021/09/13 07:25:37;;;;;;;5.47;3.63;;;;;;;;;;5074472;28;20052;-67
2021/09/13 07:28:03;;;;;;;9.43;4.00;;;;;;;;;;5074113;28;20048;-69
2021/09/13 07:30:30;;;;;;;7.30;4.50;;;;;;;;;;5074275;28;20690;-69
2021/09/13 07:32:57;;;;;;;7.47;4.22;;;;;;;;;;5074279;28;20491;-68
2021/09/13 07:35:24;;;;;;;6.28;4.22;;;;;;;;;;5074032;28;20063;-69
2021/09/13 07:37:50;;;;;;;6.88;3.85;;;;;;;;;;5074219;28;20048;-67
2021/09/13 07:40:18;;;;;;;6.55;4.82;;;;;;;;;;5074079;28;20044;-67
2021/09/13 07:42:45;;;;;;;7.05;4.25;;;;;;;;;;5074194;28;20360;-68
2021/09/13 07:45:11;;;;;;;5.90;4.10;;;;;;;;;;5058223;28;20487;-69
2021/09/13 07:47:38;;;;;;;11.05;4.55;;;;;;;;;;5060175;28;20044;-68
2021/09/13 07:50:06;;;;;;;6.03;4.10;;;;;;;;;;5055776;28;20045;-69
2021/09/13 07:52:32;;;;;;;10.98;5.35;;;;;;;;;;5062281;28;20485;-67
2021/09/13 07:54:59;;;;;;;7.85;4.57;;;;;;;;;;5052906;28;20419;-68
2021/09/13 07:57:26;;;;;;;8.50;5.10;;;;;;;;;;5065787;28;20048;-67
2021/09/13 07:59:54;;;;;;;6.85;5.07;;;;;;;;;;5073669;28;20494;-67
2021/09/13 08:02:20;;;;;;;8.95;5.10;;;;;;;;;;5073776;28;20036;-68
2021/09/13 08:04:46;;;;;;;7.57;5.10;;;;;;;;;;5073716;28;20048;-69
2021/09/13 08:07:13;;;;;;;7.40;5.00;;;;;;;;;;5073871;28;20048;-68
2021/09/13 08:09:39;;;;;;;10.35;5.43;;;;;;;;;;5073405;28;20055;-69
2021/09/13 08:12:06;;;;;;;8.80;5.28;;;;;;;;;;5071621;28;20414;-69
2021/09/13 08:14:34;;;;;;;7.38;5.47;;;;;;;;;;5074262;28;20047;-69
2021/09/13 08:17:01;;;;;;;10.25;6.03;;;;;;;;;;5059784;28;20123;-67
2021/09/13 08:19:27;;;;;;;8.63;5.20;;;;;;;;;;5072325;28;20059;-70
2021/09/13 08:21:53;;;;;;;7.85;5.63;;;;;;;;;;5073425;28;20052;-67
2021/09/13 08:24:20;;;;;;;7.00;5.40;;;;;;;;;;5073340;28;20056;-68
2021/09/13 08:26:46;;;;;;;6.97;5.10;;;;;;;;;;5073395;28;20048;-69
2021/09/13 08:29:15;;;;;;;12.05;5.50;;;;;;;;;;5073268;28;20463;-69
2021/09/13 08:31:43;;;;;;;7.15;5.05;;;;;;;;;;5073131;28;20060;-68
2021/09/13 08:34:11;;;;;;;6.72;4.97;;;;;;;;;;5073180;28;20068;-69
2021/09/13 08:36:37;;;;;;;6.05;4.45;;;;;;;;;;5072971;28;20087;-69
2021/09/13 08:39:04;;;;;;;6.13;4.53;;;;;;;;;;5072980;28;20134;-69
2021/09/13 08:41:32;;;;;;;7.90;4.57;;;;;;;;;;5072629;28;20060;-69
2021/09/13 08:43:59;;;;;;;6.15;4.78;;;;;;;;;;5071169;28;20048;-70
2021/09/13 08:46:35;;;;;;;6.85;4.63;;;;;;;;;;5072553;28;20075;-68
2021/09/13 08:49:07;;;;;;;7.72;4.35;;;;;;;;;;5066115;28;20127;-69
2021/09/13 08:51:34;;;;;;;5.30;3.92;;;;;;;;;;5060347;28;20051;-69
2021/09/13 08:54:04;;;;;;;7.30;4.30;;;;;;;;;;5065643;28;20045;-70
2021/09/13 08:56:35;;;;;;;8.23;4.55;;;;;;;;;;5072329;28;20074;-69
2021/09/13 08:59:04;;;;;;;6.22;3.83;;;;;;;;;;5072263;28;20053;-67
2021/09/13 09:01:31;;;;;;;5.70;4.40;;;;;;;;;;5072293;28;20049;-68
2021/09/13 09:03:58;;;;;;;8.10;4.38;;;;;;;;;;5072470;28;20049;-70
2021/09/13 09:06:36;;;;;;;6.03;4.28;;;;;;;;;;5072501;28;20501;-69
2021/09/13 09:09:06;;;;;;;6.68;5.20;;;;;;;;;;5072544;28;20052;-69
2021/09/13 09:11:53;;;;;;;7.47;4.95;;;;;;;;;;5072332;28;20057;-69
2021/09/13 09:14:26;;;;;;;7.25;5.45;;;;;;;;;;5052488;28;20048;-68
2021/09/13 09:16:56;;;;;;;7.60;5.10;;;;;;;;;;5052422;28;20598;-69
2021/09/13 09:19:23;;;;;;;7.80;4.85;;;;;;;;;;5052101;28;20084;-68
2021/09/13 09:21:51;;;;;;;7.55;5.13;;;;;;;;;;5052087;28;20419;-70
2021/09/13 09:24:17;;;;;;;6.15;4.85;;;;;;;;;;5052246;28;20483;-69
2021/09/13 09:27:01;;;;;;;7.18;5.68;;;;;;;;;;5052197;28;20053;-68
2021/09/13 09:29:28;;;;;;;6.38;4.60;;;;;;;;;;5051941;28;20118;-69
2021/09/13 09:31:57;;;;;;;6.43;5.13;;;;;;;;;;5051852;28;20051;-67
2021/09/13 09:34:25;;;;;;;6.97;4.97;;;;;;;;;;5052090;28;20115;-69
2021/09/13 09:37:09;;;;;;;7.53;4.97;;;;;;;;;;5052105;28;20053;-69
2021/09/13 09:39:37;;;;;;;8.93;5.35;;;;;;;;;;5051639;28;20059;-69
2021/09/13 09:42:05;;;;;;;6.57;4.80;;;;;;;;;;5052270;28;20052;-69
2021/09/13 09:44:33;;;;;;;6.45;4.35;;;;;;;;;;5060592;28;20045;-68
2021/09/13 09:47:05;;;;;;;5.28;4.22;;;;;;;;;;5071496;28;20074;-69
2021/09/13 09:49:41;;;;;;;5.97;4.72;;;;;;;;;;5065486;28;20037;-68
2021/09/13 09:52:09;;;;;;;7.05;4.70;;;;;;;;;;5068726;28;20045;-68
2021/09/13 09:54:36;;;;;;;6.28;4.60;;;;;;;;;;5061871;28;20463;-68
2021/09/13 09:57:05;;;;;;;5.55;4.03;;;;;;;;;;5051666;28;20060;-69
2021/09/13 09:59:33;;;;;;;7.45;3.83;;;;;;;;;;5051525;28;20107;-69
2021/09/13 10:02:00;;;;;;;6.28;5.13;;;;;;;;;;5051757;28;20053;-68
2021/09/13 10:04:28;;;;;;;7.80;4.50;;;;;;;;;;5051328;28;20045;-68
2021/09/13 10:06:56;;;;;;;6.95;4.95;;;;;;;;;;5051337;28;20048;-69
2021/09/13 10:09:25;;;;;;;7.47;4.60;;;;;;;;;;5051405;28;20061;-68
2021/09/13 10:11:57;;;;;;;5.18;3.67;;;;;;;;;;5052271;28;20053;-69
2021/09/13 10:14:25;;;;;;;5.38;4.00;;;;;;;;;;5071586;28;20044;-68
2021/09/13 10:16:52;;;;;;;7.32;4.75;;;;;;;;;;5071154;28;20490;-68
2021/09/13 10:19:19;;;;;;;6.97;4.78;;;;;;;;;;5071105;28;20057;-69
2021/09/13 10:21:46;;;;;;;5.55;4.03;;;;;;;;;;5071379;28;20161;-69
2021/09/13 10:24:15;;;;;;;5.43;3.88;;;;;;;;;;5071361;28;20405;-69
2021/09/13 10:26:47;;;;;;;6.78;4.68;;;;;;;;;;5071272;28;20048;-70
2021/09/13 10:29:18;;;;;;;6.65;4.75;;;;;;;;;;5071292;28;20211;-68
2021/09/13 10:32:10;;;;;;;5.53;4.15;;;;;;;;;;5070980;28;20053;-69
2021/09/13 10:34:47;;;;;;;5.13;3.83;;;;;;;;;;5067922;28;20049;-69
2021/09/13 10:37:15;;;;;;;6.28;4.07;;;;;;;;;;5071290;28;20110;-68
2021/09/13 10:40:03;;;;;;;5.03;3.85;;;;;;;;;;5071026;28;20056;-68
2021/09/13 10:42:49;;;;;;;5.15;4.13;;;;;;;;;;5064635;28;20052;-69
2021/09/13 10:45:19;;;;;;;;;;;;;;;;;;5071769;28;20052;-69
2021/09/13 10:47:47;;;;;;;5.65;4.60;;;;;;;;;;5071321;28;19920;-68
2021/09/13 10:50:16;;;;;;;5.97;3.97;;;;;;;;;;5067602;28;20498;-69
2021/09/13 10:52:43;;;;;;;6.70;4.40;;;;;;;;;;5057953;28;20051;-68
2021/09/13 10:55:23;;;;;;;6.50;3.88;;;;;;;;;;5062629;28;20036;-69
2021/09/13 10:57:55;;;;;;;5.35;4.05;;;;;;;;;;5070735;28;20051;-69
2021/09/13 11:00:56;;;;;;;5.20;3.83;;;;;;;;;;5070691;28;20791;-68
2021/09/13 11:03:37;;;;;;;6.13;4.05;;;;;;;;;;5070702;28;20491;-69
2021/09/13 11:06:05;;;;;;;5.40;4.18;;;;;;;;;;5070768;28;20044;-69
2021/09/13 11:08:33;;;;;;;8.00;4.00;;;;;;;;;;5070878;28;20605;-68
2021/09/13 11:10:59;;;;;;;5.10;3.88;;;;;;;;;;5066280;28;20087;-69
2021/09/13 11:13:27;;;;;;;6.15;4.13;;;;;;;;;;5065872;28;20068;-69
2021/09/13 11:15:54;;;;;;;8.38;4.25;;;;;;;;;;5070595;28;20414;-69
2021/09/13 11:18:31;;;;;;;5.20;4.13;;;;;;;;;;5070676;28;20502;-70
2021/09/13 11:21:13;;;;;;;5.03;3.03;;;;;;;;;;5070320;28;20052;-70
2021/09/13 11:23:40;;;;;;;4.22;3.20;;;;;;;;;;5070601;28;20090;-68
2021/09/13 11:26:06;;;;;;;4.57;2.83;;;;;;;;;;5070536;28;20049;-69
2021/09/13 11:28:52;;;;;;;4.38;3.35;;;;;;;;;;5070972;28;20061;-68
2021/09/13 11:31:26;;;;;;;4.68;3.03;;;;;;;;;;5074308;28;20059;-69
2021/09/13 11:33:53;;;;;;;5.00;3.55;;;;;;;;;;5074219;28;20048;-70
2021/09/13 11:36:22;;;;;;;7.35;3.47;;;;;;;;;;5074205;28;20049;-69
2021/09/13 11:38:56;;;;;;;4.88;3.50;;;;;;;;;;5074181;28;20493;-69
2021/09/13 11:41:22;;;;;;;5.75;3.40;;;;;;;;;;5073679;28;20056;-68
2021/09/13 11:43:58;;;;;;;5.60;3.25;;;;;;;;;;5054232;28;20479;-68
2021/09/13 11:46:25;;;;;;;5.80;3.80;;;;;;;;;;5054231;28;20512;-68
2021/09/13 11:48:51;;;;;;;3.45;2.90;;;;;;;;;;5053740;28;20049;-69
2021/09/13 11:51:18;;;;;;;4.65;3.00;;;;;;;;;;5053938;28;20135;-69
2021/09/13 11:53:44;;;;;;;6.28;3.47;;;;;;;;;;5063438;28;20509;-68
2021/09/13 11:56:11;;;;;;;5.10;3.35;;;;;;;;;;5073805;28;20497;-69
2021/09/13 11:58:44;;;;;;;4.68;3.30;;;;;;;;;;5073956;28;20507;-68
2021/09/13 12:01:19;;;;;;;5.35;2.85;;;;;;;;;;5073818;28;20044;-68
2021/09/13 12:03:46;;;;;;;8.15;3.33;;;;;;;;;;5073688;28;20052;-69
2021/09/13 12:06:18;;;;;;;5.30;3.00;;;;;;;;;;5073969;28;20106;-69
2021/09/13 12:08:45;;;;;;;4.30;3.40;;;;;;;;;;5073415;28;20063;-69
2021/09/13 12:11:12;;;;;;;4.03;2.88;;;;;;;;;;5072355;28;20413;-69
2021/09/13 12:13:38;;;;;;;4.05;3.10;;;;;;;;;;5053490;28;20049;-69
2021/09/13 12:16:09;;;;;;;4.53;2.90;;;;;;;;;;5053672;28;20525;-69
2021/09/13 12:18:37;;;;;;;3.65;2.40;;;;;;;;;;5053302;28;20056;-68
2021/09/13 12:21:03;;;;;;;4.10;2.70;;;;;;;;;;5053082;28;20055;-69
2021/09/13 12:23:32;;;;;;;3.38;2.50;;;;;;;;;;5053603;28;20049;-70
2021/09/13 12:26:03;;;;;;;3.78;2.90;;;;;;;;;;5066024;28;20071;-68
2021/09/13 12:28:31;;;;;;;5.57;3.17;;;;;;;;;;5056328;28;20475;-68
2021/09/13 12:31:00;;;;;;;5.00;2.40;;;;;;;;;;5053030;28;20056;-68
2021/09/13 12:33:37;;;;;;;3.63;2.70;;;;;;;;;;5053514;28;20056;-68
2021/09/13 12:36:14;;;;;;;3.88;2.80;;;;;;;;;;5053267;28;20381;-69
2021/09/13 12:38:42;;;;;;;5.45;3.00;;;;;;;;;;5053692;28;20049;-69
2021/09/13 12:41:08;;;;;;;3.80;2.55;;;;;;;;;;5072446;28;20052;-68
2021/09/13 12:43:37;;;;;;;4.28;2.63;;;;;;;;;;5072781;28;20052;-69
2021/09/13 12:46:06;;;;;;;4.07;2.47;;;;;;;;;;5073173;28;20048;-68
2021/09/13 12:48:44;;;;;;;5.88;2.45;;;;;;;;;;5073036;28;20079;-68
2021/09/13 12:51:14;;;;;;;4.80;3.05;;;;;;;;;;5072928;28;20052;-69
2021/09/13 12:53:49;;;;;;;3.70;3.00;;;;;;;;;;5061858;28;20071;-68
2021/09/13 12:56:16;;;;;;;4.38;2.53;;;;;;;;;;5072016;28;20044;-68
2021/09/13 12:58:44;;;;;;;5.40;2.97;;;;;;;;;;5072315;28;20079;-69
2021/09/13 13:01:32;;;;;;;4.38;2.75;;;;;;;;;;5072500;28;20544;-67
2021/09/13 13:04:01;;;;;;;4.90;2.85;;;;;;;;;;5072360;28;20045;-68
2021/09/13 13:06:27;;;;;;;3.75;2.35;;;;;;;;;;5072492;28;20614;-69
2021/09/13 13:08:54;;;;;;;3.80;2.75;;;;;;;;;;5052500;28;20055;-68
2021/09/13 13:11:20;;;;;;;5.75;2.20;;;;;;;;;;5052486;28;20053;-68
2021/09/13 13:13:47;;;;;;;4.32;3.00;;;;;;;;;;5052399;28;20780;-68
2021/09/13 13:16:14;;;;;;;4.88;2.53;;;;;;;;;;5052505;28;20056;-69
2021/09/13 13:18:40;;;;;;;3.85;2.70;;;;;;;;;;5052186;28;20089;-68
2021/09/13 13:21:08;;;;;;;4.10;2.67;;;;;;;;;;5052274;28;20060;-69
2021/09/13 13:23:35;;;;;;;3.90;2.33;;;;;;;;;;5052005;28;20415;-68
2021/09/13 13:26:01;;;;;;;3.72;2.72;;;;;;;;;;5052192;28;20482;-69
2021/09/13 13:28:29;;;;;;;3.88;2.25;;;;;;;;;;5052090;28;20057;-68
2021/09/13 13:30:55;;;;;;;5.40;2.60;;;;;;;;;;5051678;28;20476;-69
2021/09/13 13:33:21;;;;;;;5.55;2.47;;;;;;;;;;5052084;28;20052;-68
2021/09/13 13:35:48;;;;;;;3.63;2.50;;;;;;;;;;5052320;28;20099;-69
2021/09/13 13:38:16;;;;;;;3.30;2.45;;;;;;;;;;5068496;28;20060;-70
2021/09/13 13:40:42;;;;;;;5.18;2.38;;;;;;;;;;5071617;28;20418;-69
2021/09/13 13:43:09;;;;;;;3.83;2.35;;;;;;;;;;5071962;28;20048;-68
2021/09/13 13:45:36;;;;;;;3.72;2.53;;;;;;;;;;5071970;28;20402;-67
2021/09/13 13:48:03;;;;;;;3.47;2.15;;;;;;;;;;5071667;28;20056;-67
2021/09/13 13:50:30;;;;;;;3.10;2.35;;;;;;;;;;5071470;28;20570;-67
2021/09/13 13:52:57;;;;;;;4.07;3.03;;;;;;;;;;5070171;28;20422;-67
2021/09/13 13:55:24;;;;;;;3.67;2.38;;;;;;;;;;5066231;28;20394;-68
2021/09/13 13:57:52;;;;;;;2.63;2.20;;;;;;;;;;5059983;28;20498;-68
2021/09/13 14:00:19;;;;;;;3.17;2.10;;;;;;;;;;5051699;28;20464;-69
2021/09/13 14:02:45;;;;;;;3.65;2.10;;;;;;;;;;5051616;28;20087;-68
2021/09/13 14:05:12;;;;;;;3.53;2.30;;;;;;;;;;5051620;28;20054;-68
2021/09/13 14:07:39;;;;;;;2.83;1.90;;;;;;;;;;5062439;28;20501;-67
2021/09/13 14:10:07;;;;;;;3.78;2.10;;;;;;;;;;5056555;28;20425;-67
2021/09/13 14:12:35;;;;;;;5.38;2.50;;;;;;;;;;5051502;28;20049;-67
2021/09/13 14:15:02;;;;;;;4.57;2.55;;;;;;;;;;5051335;28;20056;-68
2021/09/13 14:17:29;;;;;;;3.92;2.35;;;;;;;;;;5051596;28;20044;-68
2021/09/13 14:19:56;;;;;;;3.50;2.00;;;;;;;;;;5051268;28;20057;-67
2021/09/13 14:22:23;;;;;;;4.03;2.30;;;;;;;;;;5051285;28;20071;-68
2021/09/13 14:24:49;;;;;;;3.00;2.17;;;;;;;;;;5051111;28;20081;-68
2021/09/13 14:27:16;;;;;;;4.30;2.30;;;;;;;;;;5051457;28;20507;-68
2021/09/13 14:29:44;;;;;;;2.78;2.13;;;;;;;;;;5051097;28;20061;-67
2021/09/13 14:32:10;;;;;;;4.60;2.50;;;;;;;;;;5050875;28;20049;-68
2021/09/13 14:34:37;;;;;;;2.92;2.20;;;;;;;;;;5051270;28;20045;-68
2021/09/13 14:37:03;;;;;;;4.32;2.30;;;;;;;;;;5057527;28;20064;-68
2021/09/13 14:39:30;;;;;;;5.03;2.60;;;;;;;;;;5060039;28;20053;-67
2021/09/13 14:41:57;;;;;;;4.13;2.50;;;;;;;;;;5051144;28;20045;-67
2021/09/13 14:44:24;;;;;;;4.10;2.45;;;;;;;;;;5050974;28;20589;-67
2021/09/13 14:46:51;;;;;;;3.42;2.10;;;;;;;;;;5050982;28;20060;-68
2021/09/13 14:49:19;;;;;;;2.88;2.50;;;;;;;;;;5051135;28;20068;-68
2021/09/13 14:51:46;;;;;;;3.67;2.33;;;;;;;;;;5050864;28;20543;-68